Noack, Texas
Current Conditions -  °F | °C
As of 1:58 AM on Monday 24 Nov 2014 (Local Time) from KGRK Reporting Station
Clear Clear  
Wind Chill: 48°   Ceiling: Unl
Heat Index: 48°   Visibility: 10mi
Dew Point: 37°   Wind: 3mph
Humidity: 64%   Direction: 280°W
Pressure: 29.91"   Gusts: NA
Location:  30.5793°N, 97.5096°W
Report Text: KGRK 240758Z AUTO 28003KT 10SM CLR 09/03 A2991 RMK AO2 SLP124 T00890025
Loading
Personal Weather Stations






























Interactive Weather Map New forecast layout! Learn more

10-Day Weather Forecast

Advertisements
Track Severe Weather on mobile